This is the latest recevied weather packets stored in our database for station/object KE7PGE-13. If no packets are shown the sender has not sent any weather packets the latest 10 day(s).
| Time | Temp. | Humidity | Pressure | Rain* | Wind** | Luminosity | Snow |
|---|---|---|---|---|---|---|---|
| 1788142204 | 69° F | 59% | 764.5 mmHg | 0 in | - | - | - |
| 1788138604 | 72° F | 56% | 764.8 mmHg | 0 in | - | - | - |
| 1788124203 | 66° F | 67% | 766 mmHg | 0 in | - | - | - |
| 1788113404 | 59° F | 78% | 766.3 mmHg | 0 in | - | - | - |
| 1788108005 | 56° F | 93% | 766.3 mmHg | 0 in | - | - | - |
| 1788099003 | 54° F | 94% | 765.9 mmHg | 0 in | - | - | - |
| 1788081004 | 54° F | 90% | 765.6 mmHg | 0 in | - | - | - |
| 1788073804 | 56° F | 84% | 765.3 mmHg | 0 in | - | - | - |
| 1788068404 | 57° F | 87% | 765.2 mmHg | 0 in | - | - | - |
| 1788066605 | 57° F | 91% | 765.1 mmHg | 0 in | - | - | - |
| 1788046805 | 67° F | 75% | 764.4 mmHg | 0 in | - | - | - |
| 1788021604 | 53° F | 96% | 763 mmHg | 0.1 in | - | - | - |
| 1788018005 | 53° F | 96% | 763.3 mmHg | 0.44 in | - | - | - |
| 1788009005 | 54° F | 94% | 762.4 mmHg | 0 in | - | - | - |
| 1787996405 | 56° F | 88% | 762.7 mmHg | 0 in | - | - | - |
| 1787994604 | 57° F | 87% | 762.8 mmHg | 0 in | - | - | - |
| 1787989204 | 58° F | 83% | 762.7 mmHg | 0 in | - | - | - |
| 1787978404 | 62° F | 76% | 762.6 mmHg | 0 in | - | - | - |
| 1787976604 | 63° F | 74% | 762.3 mmHg | 0 in | - | - | - |
| 1787969404 | 68° F | 66% | 762.2 mmHg | 0 in | - | - | - |
| 1787962204 | 68° F | 66% | 762.7 mmHg | 0 in | - | - | - |
| 1787960404 | 69° F | 69% | 763 mmHg | 0 in | - | - | - |
| 1787942404 | 64° F | 78% | 764.2 mmHg | 0 in | - | - | - |
| 1787940603 | 63° F | 79% | 764.2 mmHg | 0 in | - | - | - |
| 1787922604 | 58° F | 87% | 764.1 mmHg | 0 in | - | - | - |
* Rain latest hour (hover to see other rain measurements)
** Current wind speed in m/s (hover to see current wind gust speed)